Northleach, United Kingdom
Current Conditions -  °F | °C
As of 11:58 AM on Monday 24 Nov 2014 (Local Time) from EGVA Reporting Station
Few Clouds Few Clouds  
Wind Chill: 39°   Ceiling: Unl
Heat Index: 39°   Visibility: 6mi
Dew Point: 39°   Wind: 1mph
Humidity: 99%   Direction: 210°SSW
Pressure: 30.33"   Gusts: NA
Location:  51.83°N, 1.84°W
Report Text: EGVA 241158Z AUTO 21001KT 9999 FEW220 04/04 A3033 RMK AO2 SLP279 T00400039 10040 21025 50005 $
Loading
Personal Weather Stations






























Interactive Weather Map New forecast layout! Learn more

10-Day Weather Forecast

Advertisements
Track Severe Weather on mobile